sensor_id;sensor_type;location;lat;lon;timestamp;pressure;altitude;pressure_sealevel;temperature;humidity
78073;BME280;67281;48.770;11.440;2024-01-30T00:02:16;98665.59;;;15.67;44.74
78073;BME280;67281;48.770;11.440;2024-01-30T00:04:43;98664.63;;;15.68;45.02
78073;BME280;67281;48.770;11.440;2024-01-30T00:07:09;98667.28;;;15.68;45.03
78073;BME280;67281;48.770;11.440;2024-01-30T00:09:38;98658.50;;;15.68;45.23
78073;BME280;67281;48.770;11.440;2024-01-30T00:12:06;98668.22;;;15.67;44.84
78073;BME280;67281;48.770;11.440;2024-01-30T00:14:33;98663.88;;;15.66;44.81
78073;BME280;67281;48.770;11.440;2024-01-30T00:17:00;98669.19;;;15.66;45.01
78073;BME280;67281;48.770;11.440;2024-01-30T00:19:27;98676.25;;;15.66;45.01
78073;BME280;67281;48.770;11.440;2024-01-30T00:21:53;98677.94;;;15.67;44.75
78073;BME280;67281;48.770;11.440;2024-01-30T00:24:20;98679.75;;;15.66;44.84
78073;BME280;67281;48.770;11.440;2024-01-30T00:26:47;98675.41;;;15.65;45.05
78073;BME280;67281;48.770;11.440;2024-01-30T00:29:14;98683.34;;;15.65;45.10
78073;BME280;67281;48.770;11.440;2024-01-30T00:31:46;98667.69;;;15.62;44.99
78073;BME280;67281;48.770;11.440;2024-01-30T00:34:13;98679.84;;;15.65;45.64
78073;BME280;67281;48.770;11.440;2024-01-30T00:36:40;98684.28;;;15.64;45.34
78073;BME280;67281;48.770;11.440;2024-01-30T00:39:07;98678.38;;;15.61;45.35
78073;BME280;67281;48.770;11.440;2024-01-30T00:41:35;98681.75;;;15.63;45.08
78073;BME280;67281;48.770;11.440;2024-01-30T00:44:02;98687.78;;;15.65;45.11
78073;BME280;67281;48.770;11.440;2024-01-30T00:46:29;98684.50;;;15.61;45.00
78073;BME280;67281;48.770;11.440;2024-01-30T00:48:56;98693.38;;;15.60;45.13
78073;BME280;67281;48.770;11.440;2024-01-30T00:51:23;98697.69;;;15.61;45.16
78073;BME280;67281;48.770;11.440;2024-01-30T00:53:50;98697.69;;;15.61;45.16
78073;BME280;67281;48.770;11.440;2024-01-30T00:56:16;98696.75;;;15.62;44.99
78073;BME280;67281;48.770;11.440;2024-01-30T00:58:45;98689.78;;;15.61;45.36
78073;BME280;67281;48.770;11.440;2024-01-30T01:01:11;98690.63;;;15.62;45.35
78073;BME280;67281;48.770;11.440;2024-01-30T01:03:39;98692.56;;;15.60;45.43
78073;BME280;67281;48.770;11.440;2024-01-30T01:06:08;98695.19;;;15.60;45.03
78073;BME280;67281;48.770;11.440;2024-01-30T01:08:34;98696.00;;;15.60;45.13
78073;BME280;67281;48.770;11.440;2024-01-30T01:11:01;98698.66;;;15.60;44.68
78073;BME280;67281;48.770;11.440;2024-01-30T01:13:30;98684.72;;;15.58;45.44
78073;BME280;67281;48.770;11.440;2024-01-30T01:15:57;98683.03;;;15.57;45.40
78073;BME280;67281;48.770;11.440;2024-01-30T01:18:27;98685.69;;;15.57;44.88
78073;BME280;67281;48.770;11.440;2024-01-30T01:20:54;98690.13;;;15.57;45.10
78073;BME280;67281;48.770;11.440;2024-01-30T01:23:21;98691.88;;;15.56;44.83
78073;BME280;67281;48.770;11.440;2024-01-30T01:25:47;98693.69;;;15.56;45.36
78073;BME280;67281;48.770;11.440;2024-01-30T01:28:14;98693.59;;;15.57;45.06
78073;BME280;67281;48.770;11.440;2024-01-30T01:30:41;98694.53;;;15.56;45.43
78073;BME280;67281;48.770;11.440;2024-01-30T01:33:08;98691.88;;;15.56;44.83
78073;BME280;67281;48.770;11.440;2024-01-30T01:35:36;98698.22;;;15.54;45.17
78073;BME280;67281;48.770;11.440;2024-01-30T01:38:03;98694.63;;;15.55;44.92
78073;BME280;67281;48.770;11.440;2024-01-30T01:40:29;98695.47;;;15.55;45.04
78073;BME280;67281;48.770;11.440;2024-01-30T01:42:56;98697.38;;;15.53;45.19
78073;BME280;67281;48.770;11.440;2024-01-30T01:45:23;98692.94;;;15.54;44.92
78073;BME280;67281;48.770;11.440;2024-01-30T01:47:51;98687.75;;;15.52;45.12
78073;BME280;67281;48.770;11.440;2024-01-30T01:50:20;98686.91;;;15.52;44.80
78073;BME280;67281;48.770;11.440;2024-01-30T01:52:48;98685.97;;;15.53;44.73
78073;BME280;67281;48.770;11.440;2024-01-30T01:55:15;98678.97;;;15.52;45.11
78073;BME280;67281;48.770;11.440;2024-01-30T01:57:43;98676.44;;;15.50;45.43
78073;BME280;67281;48.770;11.440;2024-01-30T02:00:10;98674.66;;;15.51;45.05
78073;BME280;67281;48.770;11.440;2024-01-30T02:02:38;98676.44;;;15.50;45.36
78073;BME280;67281;48.770;11.440;2024-01-30T02:05:06;98680.03;;;15.49;44.84
78073;BME280;67281;48.770;11.440;2024-01-30T02:07:32;98675.81;;;15.47;44.87
78073;BME280;67281;48.770;11.440;2024-01-30T02:09:59;98673.91;;;15.49;45.16
78073;BME280;67281;48.770;11.440;2024-01-30T02:12:26;98671.16;;;15.50;45.37
78073;BME280;67281;48.770;11.440;2024-01-30T02:14:53;98673.06;;;15.48;45.39
78073;BME280;67281;48.770;11.440;2024-01-30T02:17:21;98667.78;;;15.48;45.05
78073;BME280;67281;48.770;11.440;2024-01-30T02:19:50;98665.22;;;15.47;44.97
78073;BME280;67281;48.770;11.440;2024-01-30T02:22:17;98662.50;;;15.48;44.81
78073;BME280;67281;48.770;11.440;2024-01-30T02:24:45;98663.44;;;15.47;45.18
78073;BME280;67281;48.770;11.440;2024-01-30T02:27:12;98663.53;;;15.45;45.22
78073;BME280;67281;48.770;11.440;2024-01-30T02:29:39;98666.19;;;15.45;45.49
78073;BME280;67281;48.770;11.440;2024-01-30T02:32:06;98652.13;;;15.45;45.51
78073;BME280;67281;48.770;11.440;2024-01-30T02:34:34;98663.63;;;15.44;45.55
78073;BME280;67281;48.770;11.440;2024-01-30T02:37:01;98668.94;;;15.44;45.40
78073;BME280;67281;48.770;11.440;2024-01-30T02:39:28;98665.34;;;15.45;45.46
78073;BME280;67281;48.770;11.440;2024-01-30T02:41:55;98669.03;;;15.42;45.21
78073;BME280;67281;48.770;11.440;2024-01-30T02:44:21;98662.91;;;15.42;45.11
78073;BME280;67281;48.770;11.440;2024-01-30T02:46:48;98670.91;;;15.40;45.63
78073;BME280;67281;48.770;11.440;2024-01-30T02:49:15;98668.28;;;15.40;44.89
78073;BME280;67281;48.770;11.440;2024-01-30T02:51:42;98674.50;;;15.39;44.93
78073;BME280;67281;48.770;11.440;2024-01-30T02:54:09;98673.66;;;15.39;45.23
78073;BME280;67281;48.770;11.440;2024-01-30T02:56:36;98663.09;;;15.39;45.57
78073;BME280;67281;48.770;11.440;2024-01-30T02:59:03;98659.72;;;15.37;45.24
78073;BME280;67281;48.770;11.440;2024-01-30T03:01:30;98661.41;;;15.38;45.56
78073;BME280;67281;48.770;11.440;2024-01-30T03:03:58;98657.91;;;15.37;45.38
78073;BME280;67281;48.770;11.440;2024-01-30T03:06:25;98654.34;;;15.38;45.57
78073;BME280;67281;48.770;11.440;2024-01-30T03:08:52;98661.50;;;15.36;44.81
78073;BME280;67281;48.770;11.440;2024-01-30T03:11:19;98651.06;;;15.35;45.52
78073;BME280;67281;48.770;11.440;2024-01-30T03:13:46;98647.47;;;15.36;45.56
78073;BME280;67281;48.770;11.440;2024-01-30T03:16:12;98644.91;;;15.34;45.52
78073;BME280;67281;48.770;11.440;2024-01-30T03:18:39;98652.84;;;15.34;44.90
78073;BME280;67281;48.770;11.440;2024-01-30T03:21:06;98653.78;;;15.33;45.11
78073;BME280;67281;48.770;11.440;2024-01-30T03:23:33;98649.34;;;15.34;45.67
78073;BME280;67281;48.770;11.440;2024-01-30T03:26:00;98652.94;;;15.33;44.75
78073;BME280;67281;48.770;11.440;2024-01-30T03:28:27;98648.63;;;15.32;45.50
78073;BME280;67281;48.770;11.440;2024-01-30T03:30:53;98654.75;;;15.32;44.83
78073;BME280;67281;48.770;11.440;2024-01-30T03:33:20;98652.00;;;15.34;45.52
78073;BME280;67281;48.770;11.440;2024-01-30T03:35:47;98655.69;;;15.31;45.25
78073;BME280;67281;48.770;11.440;2024-01-30T03:38:14;98651.34;;;15.30;45.28
78073;BME280;67281;48.770;11.440;2024-01-30T03:40:41;98646.19;;;15.29;45.35
78073;BME280;67281;48.770;11.440;2024-01-30T03:43:08;98652.41;;;15.28;45.24
78073;BME280;67281;48.770;11.440;2024-01-30T03:45:35;98655.03;;;15.28;45.30
78073;BME280;67281;48.770;11.440;2024-01-30T03:48:01;98656.84;;;15.27;45.26
78073;BME280;67281;48.770;11.440;2024-01-30T03:50:28;98647.13;;;15.28;45.14
78073;BME280;67281;48.770;11.440;2024-01-30T03:52:55;98651.47;;;15.29;45.21
78073;BME280;67281;48.770;11.440;2024-01-30T03:55:22;98648.06;;;15.27;45.39
78073;BME280;67281;48.770;11.440;2024-01-30T03:57:49;98648.91;;;15.27;45.17
78073;BME280;67281;48.770;11.440;2024-01-30T04:00:16;98648.16;;;15.25;45.46
78073;BME280;67281;48.770;11.440;2024-01-30T04:02:43;98646.47;;;15.24;45.26
78073;BME280;67281;48.770;11.440;2024-01-30T04:05:11;98643.94;;;15.23;44.92
78073;BME280;67281;48.770;11.440;2024-01-30T04:07:39;98643.00;;;15.24;45.34
78073;BME280;67281;48.770;11.440;2024-01-30T04:10:06;98645.63;;;15.24;45.62
78073;BME280;67281;48.770;11.440;2024-01-30T04:12:33;98642.25;;;15.22;44.61
78073;BME280;67281;48.770;11.440;2024-01-30T04:15:00;98655.44;;;15.22;45.02
78073;BME280;67281;48.770;11.440;2024-01-30T04:17:27;98652.06;;;15.20;45.16
78073;BME280;67281;48.770;11.440;2024-01-30T04:19:55;98659.13;;;15.19;45.47
78073;BME280;67281;48.770;11.440;2024-01-30T04:22:22;98650.38;;;15.19;45.57
78073;BME280;67281;48.770;11.440;2024-01-30T04:24:49;98650.47;;;15.17;45.25
78073;BME280;67281;48.770;11.440;2024-01-30T04:27:16;98648.69;;;15.18;45.06
78073;BME280;67281;48.770;11.440;2024-01-30T04:29:43;98642.56;;;15.17;45.53
78073;BME280;67281;48.770;11.440;2024-01-30T04:32:10;98647.94;;;15.16;45.11
78073;BME280;67281;48.770;11.440;2024-01-30T04:34:37;98651.53;;;15.15;45.07
78073;BME280;67281;48.770;11.440;2024-01-30T04:37:04;98650.69;;;15.14;45.07
78073;BME280;67281;48.770;11.440;2024-01-30T04:39:33;98653.41;;;15.12;44.87
78073;BME280;67281;48.770;11.440;2024-01-30T04:41:59;98651.72;;;15.11;44.93
78073;BME280;67281;48.770;11.440;2024-01-30T04:44:26;98654.25;;;15.13;45.30
78073;BME280;67281;48.770;11.440;2024-01-30T04:46:53;98660.38;;;15.13;44.70
78073;BME280;67281;48.770;11.440;2024-01-30T04:49:20;98653.63;;;15.09;45.17
78073;BME280;67281;48.770;11.440;2024-01-30T04:51:47;98660.59;;;15.10;44.85
78073;BME280;67281;48.770;11.440;2024-01-30T04:54:14;98661.34;;;15.12;44.93
78073;BME280;67281;48.770;11.440;2024-01-30T04:56:41;98656.16;;;15.11;45.35
78073;BME280;67281;48.770;11.440;2024-01-30T04:59:08;98657.09;;;15.10;44.71
78073;BME280;67281;48.770;11.440;2024-01-30T05:01:35;98651.91;;;15.08;45.06
78073;BME280;67281;48.770;11.440;2024-01-30T05:04:02;98655.59;;;15.06;45.04
78073;BME280;67281;48.770;11.440;2024-01-30T05:06:30;98655.50;;;15.07;45.05
78073;BME280;67281;48.770;11.440;2024-01-30T05:08:57;98657.41;;;15.05;45.31
78073;BME280;67281;48.770;11.440;2024-01-30T05:11:24;98656.56;;;15.05;45.24
78073;BME280;67281;48.770;11.440;2024-01-30T05:13:51;98658.44;;;15.03;44.96
78073;BME280;67281;48.770;11.440;2024-01-30T05:16:18;98669.94;;;15.02;44.69
78073;BME280;67281;48.770;11.440;2024-01-30T05:18:45;98663.81;;;15.01;45.04
78073;BME280;67281;48.770;11.440;2024-01-30T05:21:12;98669.94;;;15.02;44.82
78073;BME280;67281;48.770;11.440;2024-01-30T05:23:41;98663.81;;;15.01;45.48
78073;BME280;67281;48.770;11.440;2024-01-30T05:26:08;98673.75;;;14.98;45.32
78073;BME280;67281;48.770;11.440;2024-01-30T05:28:35;98668.34;;;14.99;44.97
78073;BME280;67281;48.770;11.440;2024-01-30T05:31:02;98665.72;;;14.99;44.99
78073;BME280;67281;48.770;11.440;2024-01-30T05:33:29;98664.88;;;14.99;45.07
78073;BME280;67281;48.770;11.440;2024-01-30T05:35:55;98669.41;;;14.97;44.58
78073;BME280;67281;48.770;11.440;2024-01-30T05:38:22;98667.63;;;14.97;44.44
78073;BME280;67281;48.770;11.440;2024-01-30T05:40:49;98661.69;;;14.94;44.82
78073;BME280;67281;48.770;11.440;2024-01-30T05:43:17;98659.88;;;14.94;45.04
78073;BME280;67281;48.770;11.440;2024-01-30T05:45:44;98670.44;;;14.94;45.41
78073;BME280;67281;48.770;11.440;2024-01-30T05:48:11;98669.59;;;14.94;44.98
78073;BME280;67281;48.770;11.440;2024-01-30T05:50:38;98672.25;;;14.94;45.20
78073;BME280;67281;48.770;11.440;2024-01-30T05:53:05;98672.34;;;14.92;45.14
78073;BME280;67281;48.770;11.440;2024-01-30T05:55:32;98676.03;;;14.90;44.90
78073;BME280;67281;48.770;11.440;2024-01-30T05:57:59;98675.94;;;14.91;44.58
78073;BME280;67281;48.770;11.440;2024-01-30T06:00:26;98672.53;;;14.89;44.74
78073;BME280;67281;48.770;11.440;2024-01-30T06:02:53;98675.38;;;14.86;44.63
78073;BME280;67281;48.770;11.440;2024-01-30T06:05:20;98686.78;;;14.87;44.81
78073;BME280;67281;48.770;11.440;2024-01-30T06:07:47;98689.31;;;14.88;45.23
78073;BME280;67281;48.770;11.440;2024-01-30T06:10:14;98689.41;;;14.87;45.21
78073;BME280;67281;48.770;11.440;2024-01-30T06:12:41;98691.22;;;14.86;44.51
78073;BME280;67281;48.770;11.440;2024-01-30T06:15:08;98687.84;;;14.84;45.13
78073;BME280;67281;48.770;11.440;2024-01-30T06:17:35;98684.28;;;14.85;44.54
78073;BME280;67281;48.770;11.440;2024-01-30T06:20:06;98684.28;;;14.85;44.86
78073;BME280;67281;48.770;11.440;2024-01-30T06:22:33;98685.22;;;14.84;45.18
78073;BME280;67281;48.770;11.440;2024-01-30T06:25:01;98686.25;;;14.82;44.88
78073;BME280;67281;48.770;11.440;2024-01-30T06:27:28;98688.78;;;14.83;44.41
78073;BME280;67281;48.770;11.440;2024-01-30T06:29:55;98688.03;;;14.81;44.54
78073;BME280;67281;48.770;11.440;2024-01-30T06:32:22;98689.75;;;14.82;44.51
78073;BME280;67281;48.770;11.440;2024-01-30T06:34:51;98690.50;;;14.84;44.38
78073;BME280;67281;48.770;11.440;2024-01-30T06:37:18;98694.06;;;14.83;44.96
78073;BME280;67281;48.770;11.440;2024-01-30T06:39:45;98697.56;;;14.84;44.42
78073;BME280;67281;48.770;11.440;2024-01-30T06:42:12;98694.28;;;14.80;44.89
78073;BME280;67281;48.770;11.440;2024-01-30T06:44:41;98690.50;;;14.84;45.09
78073;BME280;67281;48.770;11.440;2024-01-30T06:47:08;98695.03;;;14.82;44.86
78073;BME280;67281;48.770;11.440;2024-01-30T06:49:35;98695.22;;;14.79;44.59
78073;BME280;67281;48.770;11.440;2024-01-30T06:52:05;98689.75;;;14.82;44.14
78073;BME280;67281;48.770;11.440;2024-01-30T06:54:33;98691.63;;;14.80;44.88
78073;BME280;67281;48.770;11.440;2024-01-30T06:57:00;98691.63;;;14.80;44.72
78073;BME280;67281;48.770;11.440;2024-01-30T06:59:27;98695.03;;;14.82;44.47
78073;BME280;67281;48.770;11.440;2024-01-30T07:01:54;98694.38;;;14.78;45.16
78073;BME280;67281;48.770;11.440;2024-01-30T07:04:21;98702.19;;;14.80;44.57
78073;BME280;67281;48.770;11.440;2024-01-30T07:06:48;98701.34;;;14.79;45.30
78073;BME280;67281;48.770;11.440;2024-01-30T07:09:15;98696.81;;;14.82;45.02
78073;BME280;67281;48.770;11.440;2024-01-30T07:11:42;98703.88;;;14.81;45.28
78073;BME280;67281;48.770;11.440;2024-01-30T07:14:12;98705.56;;;14.82;44.55
78073;BME280;67281;48.770;11.440;2024-01-30T07:16:43;98706.44;;;14.83;44.86
78073;BME280;67281;48.770;11.440;2024-01-30T07:19:10;98710.00;;;14.82;45.31
78073;BME280;67281;48.770;11.440;2024-01-30T07:21:37;98702.00;;;14.83;45.04
78073;BME280;67281;48.770;11.440;2024-01-30T07:24:07;98699.34;;;14.83;44.96
78073;BME280;67281;48.770;11.440;2024-01-30T07:26:34;98710.44;;;14.88;45.13
78073;BME280;67281;48.770;11.440;2024-01-30T07:29:02;98709.69;;;14.86;44.79
78073;BME280;67281;48.770;11.440;2024-01-30T07:31:29;98703.38;;;14.89;44.45
78073;BME280;67281;48.770;11.440;2024-01-30T07:33:59;98698.09;;;14.89;44.83
78073;BME280;67281;48.770;11.440;2024-01-30T07:36:27;98708.75;;;14.87;44.56
78073;BME280;67281;48.770;11.440;2024-01-30T07:38:53;98705.91;;;14.90;44.75
78073;BME280;67281;48.770;11.440;2024-01-30T07:41:21;98708.34;;;14.93;44.56
78073;BME280;67281;48.770;11.440;2024-01-30T07:43:48;98708.34;;;14.93;44.80
78073;BME280;67281;48.770;11.440;2024-01-30T07:46:15;98720.59;;;14.94;45.06
78073;BME280;67281;48.770;11.440;2024-01-30T07:48:42;98724.00;;;14.96;44.65
78073;BME280;67281;48.770;11.440;2024-01-30T07:51:09;98728.41;;;14.96;44.57
78073;BME280;67281;48.770;11.440;2024-01-30T07:53:36;98729.16;;;14.98;44.98
78073;BME280;67281;48.770;11.440;2024-01-30T07:56:03;98729.06;;;14.99;45.03
78073;BME280;67281;48.770;11.440;2024-01-30T07:58:30;98725.47;;;15.00;44.80
78073;BME280;67281;48.770;11.440;2024-01-30T08:00:57;98732.47;;;15.01;44.79
78073;BME280;67281;48.770;11.440;2024-01-30T08:03:25;98729.72;;;15.03;44.38
78073;BME280;67281;48.770;11.440;2024-01-30T08:05:52;98735.00;;;15.03;44.79
78073;BME280;67281;48.770;11.440;2024-01-30T08:08:20;98738.38;;;15.05;44.78
78073;BME280;67281;48.770;11.440;2024-01-30T08:10:47;98725.09;;;15.06;44.38
78073;BME280;67281;48.770;11.440;2024-01-30T08:13:15;98738.28;;;15.06;44.26
78073;BME280;67281;48.770;11.440;2024-01-30T08:15:42;98739.88;;;15.09;44.32
78073;BME280;67281;48.770;11.440;2024-01-30T08:18:09;98736.31;;;15.10;44.26
78073;BME280;67281;48.770;11.440;2024-01-30T08:20:37;98744.13;;;15.11;44.26
78073;BME280;67281;48.770;11.440;2024-01-30T08:23:04;98745.06;;;15.10;44.62
78073;BME280;67281;48.770;11.440;2024-01-30T08:25:31;98740.53;;;15.12;44.72
78073;BME280;67281;48.770;11.440;2024-01-30T08:27:58;98736.94;;;15.13;44.39
78073;BME280;67281;48.770;11.440;2024-01-30T08:30:25;98737.69;;;15.16;44.37
78073;BME280;67281;48.770;11.440;2024-01-30T08:32:52;98736.75;;;15.17;44.21
78073;BME280;67281;48.770;11.440;2024-01-30T08:35:18;98739.09;;;15.21;44.30
78073;BME280;67281;48.770;11.440;2024-01-30T08:37:46;98738.25;;;15.21;44.40
78073;BME280;67281;48.770;11.440;2024-01-30T08:40:13;98737.22;;;15.23;44.44
78073;BME280;67281;48.770;11.440;2024-01-30T08:42:40;98737.09;;;15.25;43.86
78073;BME280;67281;48.770;11.440;2024-01-30T08:45:07;98736.06;;;15.27;43.96
78073;BME280;67281;48.770;11.440;2024-01-30T08:47:36;98734.28;;;15.28;44.49
78073;BME280;67281;48.770;11.440;2024-01-30T08:50:03;98731.44;;;15.31;44.03
78073;BME280;67281;48.770;11.440;2024-01-30T08:52:30;98743.59;;;15.33;43.67
78073;BME280;67281;48.770;11.440;2024-01-30T08:54:57;98733.78;;;15.35;43.64
78073;BME280;67281;48.770;11.440;2024-01-30T08:57:24;98743.50;;;15.35;44.03
78073;BME280;67281;48.770;11.440;2024-01-30T08:59:55;98744.22;;;15.37;43.57
78073;BME280;67281;48.770;11.440;2024-01-30T09:02:22;98738.00;;;15.38;43.66
78073;BME280;67281;48.770;11.440;2024-01-30T09:04:49;98736.09;;;15.40;43.73
78073;BME280;67281;48.770;11.440;2024-01-30T09:07:16;98729.78;;;15.42;44.08
78073;BME280;67281;48.770;11.440;2024-01-30T09:09:43;98727.97;;;15.43;43.62
78073;BME280;67281;48.770;11.440;2024-01-30T09:12:12;98738.56;;;15.43;43.71
78073;BME280;67281;48.770;11.440;2024-01-30T09:14:39;98742.78;;;15.45;43.51
78073;BME280;67281;48.770;11.440;2024-01-30T09:17:08;98738.16;;;15.49;43.42
78073;BME280;67281;48.770;11.440;2024-01-30T09:19:36;98740.69;;;15.51;43.98
78073;BME280;67281;48.770;11.440;2024-01-30T09:22:09;98747.56;;;15.53;43.56
78073;BME280;67281;48.770;11.440;2024-01-30T09:24:36;98739.63;;;15.53;43.53
78073;BME280;67281;48.770;11.440;2024-01-30T09:27:03;98744.94;;;15.53;43.10
78073;BME280;67281;48.770;11.440;2024-01-30T09:29:30;98735.09;;;15.55;43.26
78073;BME280;67281;48.770;11.440;2024-01-30T09:31:56;98731.50;;;15.56;43.55
78073;BME280;67281;48.770;11.440;2024-01-30T09:34:27;98738.53;;;15.57;43.79
78073;BME280;67281;48.770;11.440;2024-01-30T09:37:03;98727.00;;;15.58;43.59
78073;BME280;67281;48.770;11.440;2024-01-30T09:39:30;98730.25;;;15.62;43.65
78073;BME280;67281;48.770;11.440;2024-01-30T09:42:33;98733.53;;;15.65;43.72
78073;BME280;67281;48.770;11.440;2024-01-30T09:45:02;98736.09;;;15.67;43.99
78073;BME280;67281;48.770;11.440;2024-01-30T09:47:58;98736.72;;;15.70;43.84
78073;BME280;67281;48.770;11.440;2024-01-30T09:50:26;98733.97;;;15.72;43.07
78073;BME280;67281;48.770;11.440;2024-01-30T09:52:55;98739.28;;;15.72;43.46
78073;BME280;67281;48.770;11.440;2024-01-30T09:55:25;98741.81;;;15.73;43.01
78073;BME280;67281;48.770;11.440;2024-01-30T09:57:52;98747.75;;;15.77;42.89
78073;BME280;67281;48.770;11.440;2024-01-30T10:00:19;98746.69;;;15.80;42.99
78073;BME280;67281;48.770;11.440;2024-01-30T10:02:46;98747.44;;;15.82;43.18
78073;BME280;67281;48.770;11.440;2024-01-30T10:05:15;98745.44;;;15.85;42.73
78073;BME280;67281;48.770;11.440;2024-01-30T10:07:55;98738.34;;;15.86;43.49
78073;BME280;67281;48.770;11.440;2024-01-30T10:10:23;98733.06;;;15.86;42.97
78073;BME280;67281;48.770;11.440;2024-01-30T10:12:51;98734.84;;;15.85;42.52
78073;BME280;67281;48.770;11.440;2024-01-30T10:15:20;98735.50;;;15.89;42.85
78073;BME280;67281;48.770;11.440;2024-01-30T10:17:54;98734.34;;;15.93;42.92
78073;BME280;67281;48.770;11.440;2024-01-30T10:20:21;98737.50;;;15.98;42.60
78073;BME280;67281;48.770;11.440;2024-01-30T10:22:49;98733.19;;;15.97;43.00
78073;BME280;67281;48.770;11.440;2024-01-30T10:25:17;98732.13;;;15.99;43.19
78073;BME280;67281;48.770;11.440;2024-01-30T10:27:43;98730.13;;;16.03;42.79
78073;BME280;67281;48.770;11.440;2024-01-30T10:30:10;98720.28;;;16.05;42.89
78073;BME280;67281;48.770;11.440;2024-01-30T10:32:38;98724.84;;;16.03;43.25
78073;BME280;67281;48.770;11.440;2024-01-30T10:35:04;98720.28;;;16.05;42.78
78073;BME280;67281;48.770;11.440;2024-01-30T10:37:31;98717.44;;;16.08;43.06
78073;BME280;67281;48.770;11.440;2024-01-30T10:40:05;98712.88;;;16.10;42.81
78073;BME280;67281;48.770;11.440;2024-01-30T10:42:36;98716.28;;;16.12;42.95
78073;BME280;67281;48.770;11.440;2024-01-30T10:45:06;98705.47;;;16.15;43.09
78073;BME280;67281;48.770;11.440;2024-01-30T10:47:36;98705.38;;;16.17;42.56
78073;BME280;67281;48.770;11.440;2024-01-30T10:50:04;98699.97;;;16.18;43.01
78073;BME280;67281;48.770;11.440;2024-01-30T10:52:32;98699.03;;;16.19;42.30
78073;BME280;67281;48.770;11.440;2024-01-30T10:55:00;98706.97;;;16.19;43.09
78073;BME280;67281;48.770;11.440;2024-01-30T10:57:27;98702.63;;;16.18;42.58
78073;BME280;67281;48.770;11.440;2024-01-30T10:59:59;98701.66;;;16.19;42.60
78073;BME280;67281;48.770;11.440;2024-01-30T11:02:27;98701.66;;;16.19;43.31
78073;BME280;67281;48.770;11.440;2024-01-30T11:05:00;98700.81;;;16.19;42.67
78073;BME280;67281;48.770;11.440;2024-01-30T11:07:29;98694.91;;;16.15;43.04
78073;BME280;67281;48.770;11.440;2024-01-30T11:10:01;98689.81;;;16.12;43.41
78073;BME280;67281;48.770;11.440;2024-01-30T11:12:31;98687.06;;;16.14;42.87
78073;BME280;67281;48.770;11.440;2024-01-30T11:15:12;98685.81;;;16.19;42.72
78073;BME280;67281;48.770;11.440;2024-01-30T11:20:20;98683.47;;;16.27;42.57
78073;BME280;67281;48.770;11.440;2024-01-30T11:22:49;98677.97;;;16.30;42.95
78073;BME280;67281;48.770;11.440;2024-01-30T11:25:19;98675.22;;;16.32;42.71
78073;BME280;67281;48.770;11.440;2024-01-30T11:27:46;98672.47;;;16.33;43.32
78073;BME280;67281;48.770;11.440;2024-01-30T11:30:23;98674.75;;;16.38;43.36
78073;BME280;67281;48.770;11.440;2024-01-30T11:33:08;98670.09;;;16.41;43.05
78073;BME280;67281;48.770;11.440;2024-01-30T11:35:37;98668.19;;;16.43;42.74
78073;BME280;67281;48.770;11.440;2024-01-30T11:38:07;98662.88;;;16.43;42.65
78073;BME280;67281;48.770;11.440;2024-01-30T11:40:38;98662.56;;;16.48;42.39
78073;BME280;67281;48.770;11.440;2024-01-30T11:43:08;98660.03;;;16.47;42.17
78073;BME280;67281;48.770;11.440;2024-01-30T11:45:36;98654.94;;;16.43;42.75
78073;BME280;67281;48.770;11.440;2024-01-30T11:48:04;98655.91;;;16.42;42.96
78073;BME280;67281;48.770;11.440;2024-01-30T11:50:37;98645.44;;;16.41;42.51
78073;BME280;67281;48.770;11.440;2024-01-30T11:53:05;98652.31;;;16.43;43.08
78073;BME280;67281;48.770;11.440;2024-01-30T11:55:33;98648.50;;;16.48;42.81
78073;BME280;67281;48.770;11.440;2024-01-30T11:58:01;98646.56;;;16.50;42.94
78073;BME280;67281;48.770;11.440;2024-01-30T12:00:30;98639.59;;;16.49;42.56
78073;BME280;67281;48.770;11.440;2024-01-30T12:03:03;98645.94;;;16.46;42.99
78073;BME280;67281;48.770;11.440;2024-01-30T12:05:37;98637.16;;;16.46;42.99
78073;BME280;67281;48.770;11.440;2024-01-30T12:08:15;98630.19;;;16.44;42.67
78073;BME280;67281;48.770;11.440;2024-01-30T12:10:42;98631.13;;;16.43;42.92
78073;BME280;67281;48.770;11.440;2024-01-30T12:13:09;98629.44;;;16.42;42.69
78073;BME280;67281;48.770;11.440;2024-01-30T12:15:36;98625.84;;;16.43;42.71
78073;BME280;67281;48.770;11.440;2024-01-30T12:18:04;98629.44;;;16.42;43.10
78073;BME280;67281;48.770;11.440;2024-01-30T12:20:31;98629.34;;;16.44;43.10
78073;BME280;67281;48.770;11.440;2024-01-30T12:22:59;98630.28;;;16.43;43.38
78073;BME280;67281;48.770;11.440;2024-01-30T12:25:29;98614.53;;;16.41;42.99
78073;BME280;67281;48.770;11.440;2024-01-30T12:27:57;98616.34;;;16.41;43.09
78073;BME280;67281;48.770;11.440;2024-01-30T12:30:24;98618.88;;;16.42;42.91
78073;BME280;67281;48.770;11.440;2024-01-30T12:32:51;98614.53;;;16.41;43.35
78073;BME280;67281;48.770;11.440;2024-01-30T12:35:20;98618.97;;;16.41;42.91
78073;BME280;67281;48.770;11.440;2024-01-30T12:37:51;98604.91;;;16.40;42.88
78073;BME280;67281;48.770;11.440;2024-01-30T12:40:20;98612.00;;;16.40;43.38
78073;BME280;67281;48.770;11.440;2024-01-30T12:42:47;98610.31;;;16.39;43.14
78073;BME280;67281;48.770;11.440;2024-01-30T12:45:19;98614.75;;;16.38;42.95
78073;BME280;67281;48.770;11.440;2024-01-30T12:47:49;98608.63;;;16.38;43.11
78073;BME280;67281;48.770;11.440;2024-01-30T12:50:17;98604.16;;;16.38;42.76
78073;BME280;67281;48.770;11.440;2024-01-30T12:52:44;98604.28;;;16.37;42.66
78073;BME280;67281;48.770;11.440;2024-01-30T12:55:15;98599.94;;;16.36;42.25
78073;BME280;67281;48.770;11.440;2024-01-30T12:57:42;98598.13;;;16.36;42.50